Time;durP1;ratioP1;P1;durP2;ratioP2;P2;SDS_P1;SDS_P2;PMS_P1;PMS_P2;Temp;Humidity;BMP_temperature;BMP_pressure;BME280_temperature;BME280_humidity;BME280_pressure;Samples;Min_cycle;Max_cycle;Signal;HPM_P1;HPM_P2
2023/09/12 00:00:48;;;;;;;28.27;19.23;;;;;;;;;;2073784;28;20037;-55
2023/09/12 00:01:49;;;;;;;24.88;20.50;;;;;;;;;;2073786;28;20470;-56
2023/09/12 00:02:50;;;;;;;25.17;20.08;;;;;;;;;;2073972;28;20034;-56
2023/09/12 00:03:50;;;;;;;25.75;20.02;;;;;;;;;;2074003;28;20049;-56
2023/09/12 00:04:51;;;;;;;23.08;19.88;;;;;;;;;;2073420;28;20050;-56
2023/09/12 00:05:52;;;;;;;26.17;18.95;;;;;;;;;;2074040;28;20049;-56
2023/09/12 00:06:53;;;;;;;24.70;20.27;;;;;;;;;;2073854;28;20041;-55
2023/09/12 00:07:54;;;;;;;25.45;19.58;;;;;;;;;;2073129;28;20033;-56
2023/09/12 00:08:54;;;;;;;27.23;20.35;;;;;;;;;;2074103;28;20457;-56
2023/09/12 00:09:55;;;;;;;26.17;21.23;;;;;;;;;;2073159;28;20406;-56
2023/09/12 00:10:59;;;;;;;32.55;20.55;;;;;;;;;;2073756;28;20042;-56
2023/09/12 00:12:00;;;;;;;28.08;21.98;;;;;;;;;;2073771;28;20049;-56
2023/09/12 00:13:02;;;;;;;26.45;20.63;;;;;;;;;;2074038;28;20370;-56
2023/09/12 00:14:02;;;;;;;28.00;20.92;;;;;;;;;;2073160;28;20153;-56
2023/09/12 00:15:04;;;;;;;25.70;21.52;;;;;;;;;;2073210;28;20525;-56
2023/09/12 00:16:10;;;;;;;29.45;20.85;;;;;;;;;;2073796;28;20045;-56
2023/09/12 00:17:11;;;;;;;23.80;20.48;;;;;;;;;;2072950;28;20061;-56
2023/09/12 00:18:12;;;;;;;28.67;21.10;;;;;;;;;;2072532;28;20425;-56
2023/09/12 00:19:14;;;;;;;24.58;20.30;;;;;;;;;;2073430;28;20057;-56
2023/09/12 00:20:14;;;;;;;27.58;20.80;;;;;;;;;;2073790;28;20050;-56
2023/09/12 00:21:15;;;;;;;26.75;21.02;;;;;;;;;;2073980;28;20042;-56
2023/09/12 00:22:16;;;;;;;27.48;21.25;;;;;;;;;;2073873;28;20140;-56
2023/09/12 00:23:17;;;;;;;24.92;20.70;;;;;;;;;;2073654;28;20030;-56
2023/09/12 00:24:18;;;;;;;27.02;20.80;;;;;;;;;;2073819;28;20046;-56
2023/09/12 00:25:19;;;;;;;26.92;21.13;;;;;;;;;;2073293;28;20143;-56
2023/09/12 00:26:19;;;;;;;28.02;21.27;;;;;;;;;;2073616;28;20050;-56
2023/09/12 00:27:20;;;;;;;26.67;20.38;;;;;;;;;;2073502;28;20045;-56
2023/09/12 00:28:21;;;;;;;24.67;20.23;;;;;;;;;;2073761;28;20037;-56
2023/09/12 00:29:22;;;;;;;27.20;21.92;;;;;;;;;;2073754;28;20429;-55
2023/09/12 00:30:23;;;;;;;26.45;21.55;;;;;;;;;;2074936;28;20054;-56
2023/09/12 00:31:23;;;;;;;26.83;20.30;;;;;;;;;;2075294;28;20064;-56
2023/09/12 00:32:24;;;;;;;28.02;21.40;;;;;;;;;;2075459;28;20501;-57
2023/09/12 00:33:25;;;;;;;27.35;20.55;;;;;;;;;;2075377;28;20057;-56
2023/09/12 00:34:26;;;;;;;25.23;20.77;;;;;;;;;;2075603;28;20395;-56
2023/09/12 00:35:27;;;;;;;27.65;20.63;;;;;;;;;;2075306;28;20046;-56
2023/09/12 00:36:28;;;;;;;24.23;19.38;;;;;;;;;;2074581;28;20049;-56
2023/09/12 00:37:28;;;;;;;26.35;20.80;;;;;;;;;;2074790;28;20030;-56
2023/09/12 00:38:29;;;;;;;26.58;20.67;;;;;;;;;;2074341;28;20089;-56
2023/09/12 00:39:30;;;;;;;25.83;21.70;;;;;;;;;;2074386;28;20037;-56
2023/09/12 00:40:31;;;;;;;24.63;20.48;;;;;;;;;;2075614;28;20080;-56
2023/09/12 00:41:31;;;;;;;27.50;20.52;;;;;;;;;;2075365;28;20030;-56
2023/09/12 00:42:32;;;;;;;25.92;20.48;;;;;;;;;;2075209;28;20048;-56
2023/09/12 00:43:33;;;;;;;23.65;19.67;;;;;;;;;;2075302;28;20042;-56
2023/09/12 00:44:35;;;;;;;23.52;19.02;;;;;;;;;;2075069;28;20497;-56
2023/09/12 00:45:37;;;;;;;26.90;20.02;;;;;;;;;;2075373;28;20385;-56
2023/09/12 00:46:37;;;;;;;33.55;20.05;;;;;;;;;;2075437;28;20042;-56
2023/09/12 00:47:38;;;;;;;28.10;20.42;;;;;;;;;;2065875;28;20046;-56
2023/09/12 00:48:39;;;;;;;27.75;20.27;;;;;;;;;;2058244;28;20434;-56
2023/09/12 00:49:40;;;;;;;25.00;20.52;;;;;;;;;;2066680;28;20034;-56
2023/09/12 00:50:40;;;;;;;26.20;20.80;;;;;;;;;;2075164;28;20046;-56
2023/09/12 00:51:41;;;;;;;23.35;19.83;;;;;;;;;;2075188;28;20042;-56
2023/09/12 00:52:42;;;;;;;28.77;21.10;;;;;;;;;;2075314;28;20042;-56
2023/09/12 00:53:43;;;;;;;26.65;19.83;;;;;;;;;;2074443;28;20046;-56
2023/09/12 00:54:43;;;;;;;27.52;19.60;;;;;;;;;;2074597;28;20421;-61
2023/09/12 00:55:46;;;;;;;26.35;20.95;;;;;;;;;;2075124;28;20041;-63
2023/09/12 00:56:47;;;;;;;25.00;20.27;;;;;;;;;;2074205;28;20049;-63
2023/09/12 00:57:47;;;;;;;26.70;20.40;;;;;;;;;;2074741;28;20030;-63
2023/09/12 00:58:51;;;;;;;25.55;20.25;;;;;;;;;;2074927;28;20478;-63
2023/09/12 00:59:52;;;;;;;27.95;20.23;;;;;;;;;;2074432;28;20061;-63
2023/09/12 01:00:53;;;;;;;26.55;20.77;;;;;;;;;;2074605;28;20040;-63
2023/09/12 01:01:54;;;;;;;28.35;20.65;;;;;;;;;;2074784;28;20042;-62
2023/09/12 01:02:56;;;;;;;27.92;20.70;;;;;;;;;;2074223;28;20042;-63
2023/09/12 01:03:57;;;;;;;26.58;20.25;;;;;;;;;;2065593;28;20042;-62
2023/09/12 01:04:57;;;;;;;30.77;20.45;;;;;;;;;;2074462;28;20026;-63
2023/09/12 01:05:58;;;;;;;23.67;20.92;;;;;;;;;;2075073;28;20065;-62
2023/09/12 01:06:59;;;;;;;25.80;20.88;;;;;;;;;;2075071;28;20095;-63
2023/09/12 01:08:00;;;;;;;26.27;21.08;;;;;;;;;;2074172;28;20049;-62
2023/09/12 01:09:00;;;;;;;25.00;19.40;;;;;;;;;;2058604;28;20035;-62
2023/09/12 01:10:02;;;;;;;24.23;19.67;;;;;;;;;;2066050;28;20053;-63
2023/09/12 01:11:03;;;;;;;25.05;20.15;;;;;;;;;;2075064;28;20046;-62
2023/09/12 01:12:04;;;;;;;30.92;20.70;;;;;;;;;;2073906;28;20057;-62
2023/09/12 01:13:04;;;;;;;25.27;20.15;;;;;;;;;;2074056;28;20045;-63
2023/09/12 01:14:05;;;;;;;28.23;19.75;;;;;;;;;;2074662;28;20041;-63
2023/09/12 01:15:13;;;;;;;25.17;20.08;;;;;;;;;;2074213;28;20053;-62
2023/09/12 01:16:13;;;;;;;25.92;20.42;;;;;;;;;;2074446;28;20044;-62
2023/09/12 01:17:14;;;;;;;22.77;19.83;;;;;;;;;;2073779;28;20056;-63
2023/09/12 01:18:15;;;;;;;24.27;19.70;;;;;;;;;;2074950;28;20053;-62
2023/09/12 01:19:15;;;;;;;24.40;19.33;;;;;;;;;;2075059;28;20064;-62
2023/09/12 01:20:19;;;;;;;27.65;20.33;;;;;;;;;;2073988;28;20390;-62
2023/09/12 01:21:20;;;;;;;23.45;19.23;;;;;;;;;;2066685;28;20461;-63
2023/09/12 01:22:26;;;;;;;23.55;19.48;;;;;;;;;;2066213;28;20049;-63
2023/09/12 01:23:33;;;;;;;24.25;18.63;;;;;;;;;;2074581;28;20034;-62
2023/09/12 01:24:52;;;;;;;26.55;20.05;;;;;;;;;;2075303;28;20046;-62
2023/09/12 01:26:31;;;;;;;24.15;19.92;;;;;;;;;;2074235;28;20045;-63
2023/09/12 01:27:34;;;;;;;24.42;20.27;;;;;;;;;;2046797;29;20062;-63
2023/09/12 01:28:34;;;;;;;26.42;19.88;;;;;;;;;;2049476;29;20051;-62
2023/09/12 01:29:36;;;;;;;27.73;20.75;;;;;;;;;;2033617;29;20063;-63
2023/09/12 01:30:36;;;;;;;25.40;20.88;;;;;;;;;;2026249;29;20083;-62
2023/09/12 01:31:37;;;;;;;24.23;20.10;;;;;;;;;;2033995;29;20051;-63
2023/09/12 01:32:38;;;;;;;24.65;21.25;;;;;;;;;;2041636;29;20055;-62
2023/09/12 01:33:39;;;;;;;26.33;20.60;;;;;;;;;;2063822;28;20042;-63
2023/09/12 01:34:40;;;;;;;23.63;19.90;;;;;;;;;;2066271;28;20039;-63
2023/09/12 01:35:41;;;;;;;27.10;21.83;;;;;;;;;;2074338;28;20033;-63
2023/09/12 01:36:41;;;;;;;27.00;20.23;;;;;;;;;;2074574;28;20394;-63
2023/09/12 01:37:42;;;;;;;29.80;21.77;;;;;;;;;;2074296;28;20065;-62
2023/09/12 01:38:43;;;;;;;28.83;20.58;;;;;;;;;;2074265;28;20053;-62
2023/09/12 01:39:43;;;;;;;25.33;20.70;;;;;;;;;;2074823;28;20042;-63
2023/09/12 01:40:47;;;;;;;25.63;20.65;;;;;;;;;;2074764;28;20046;-63
2023/09/12 01:41:47;;;;;;;24.58;19.92;;;;;;;;;;2073530;28;20049;-63
2023/09/12 01:42:48;;;;;;;24.73;20.60;;;;;;;;;;2074239;28;20040;-63
2023/09/12 01:43:49;;;;;;;26.17;19.90;;;;;;;;;;2074669;28;20034;-63
2023/09/12 01:44:50;;;;;;;27.20;22.13;;;;;;;;;;2065992;28;20398;-62
2023/09/12 01:45:54;;;;;;;24.88;20.95;;;;;;;;;;2058417;28;20046;-63
2023/09/12 01:46:55;;;;;;;25.30;20.85;;;;;;;;;;2066367;28;20026;-63
2023/09/12 01:47:56;;;;;;;27.63;21.92;;;;;;;;;;2066014;28;20109;-63
2023/09/12 01:48:57;;;;;;;23.92;19.95;;;;;;;;;;2057801;28;20042;-63
2023/09/12 01:49:58;;;;;;;29.30;21.20;;;;;;;;;;2073773;28;20073;-62
2023/09/12 01:50:59;;;;;;;24.52;21.08;;;;;;;;;;2073738;28;20050;-62
2023/09/12 01:52:00;;;;;;;26.90;21.42;;;;;;;;;;2073583;28;20042;-63
2023/09/12 01:53:01;;;;;;;24.10;21.13;;;;;;;;;;2057875;28;20054;-62
2023/09/12 01:54:01;;;;;;;25.05;21.52;;;;;;;;;;2057757;28;20043;-63
2023/09/12 01:55:02;;;;;;;25.75;21.70;;;;;;;;;;2065889;28;20462;-63
2023/09/12 01:56:03;;;;;;;25.95;22.40;;;;;;;;;;2057373;28;20106;-62
2023/09/12 01:57:04;;;;;;;29.63;20.90;;;;;;;;;;2057596;28;20585;-63
2023/09/12 01:58:04;;;;;;;26.65;21.55;;;;;;;;;;2058296;28;20471;-62
2023/09/12 01:59:06;;;;;;;29.08;21.92;;;;;;;;;;2057327;28;20487;-63
2023/09/12 02:00:07;;;;;;;23.98;21.48;;;;;;;;;;2065668;28;20042;-62
2023/09/12 02:01:09;;;;;;;26.35;21.85;;;;;;;;;;2066026;28;20046;-63
2023/09/12 02:02:10;;;;;;;27.50;21.10;;;;;;;;;;2065612;28;20125;-63
2023/09/12 02:03:11;;;;;;;22.95;20.55;;;;;;;;;;2073436;28;20046;-63
2023/09/12 02:04:11;;;;;;;25.42;21.15;;;;;;;;;;2074884;28;20147;-63
2023/09/12 02:05:14;;;;;;;27.60;21.83;;;;;;;;;;2074668;28;20052;-62
2023/09/12 02:06:14;;;;;;;28.13;21.48;;;;;;;;;;2074456;28;20044;-62
2023/09/12 02:07:15;;;;;;;25.95;21.92;;;;;;;;;;2073749;28;20072;-62
2023/09/12 02:08:16;;;;;;;23.83;21.23;;;;;;;;;;2074710;28;20053;-63
2023/09/12 02:09:17;;;;;;;25.80;21.08;;;;;;;;;;2073794;28;20045;-62
2023/09/12 02:10:18;;;;;;;24.08;20.80;;;;;;;;;;2065879;28;20076;-62
2023/09/12 02:11:19;;;;;;;26.38;20.45;;;;;;;;;;2073722;28;20129;-63
2023/09/12 02:12:20;;;;;;;24.30;21.27;;;;;;;;;;2073776;28;20065;-62
2023/09/12 02:13:21;;;;;;;24.63;20.38;;;;;;;;;;2073266;28;20516;-62
2023/09/12 02:14:21;;;;;;;27.13;20.95;;;;;;;;;;2073592;28;20096;-63
2023/09/12 02:15:22;;;;;;;25.42;21.05;;;;;;;;;;2073624;28;20041;-63
2023/09/12 02:16:23;;;;;;;27.23;20.63;;;;;;;;;;2073391;28;20394;-63
2023/09/12 02:17:24;;;;;;;30.20;20.63;;;;;;;;;;2073162;28;20053;-63
2023/09/12 02:18:24;;;;;;;29.02;21.30;;;;;;;;;;2074656;28;20057;-62
2023/09/12 02:19:25;;;;;;;26.00;21.13;;;;;;;;;;2074785;28;20061;-62
2023/09/12 02:20:26;;;;;;;29.98;21.42;;;;;;;;;;2074440;28;20053;-64
2023/09/12 02:21:26;;;;;;;25.80;20.95;;;;;;;;;;2074478;28;20046;-62
2023/09/12 02:22:27;;;;;;;28.40;21.80;;;;;;;;;;2074476;28;20054;-62
2023/09/12 02:23:28;;;;;;;24.63;19.88;;;;;;;;;;2074575;28;20069;-62
2023/09/12 02:24:29;;;;;;;25.67;20.08;;;;;;;;;;2074577;28;20493;-63
2023/09/12 02:25:29;;;;;;;25.88;20.20;;;;;;;;;;2074529;28;20038;-63
2023/09/12 02:26:34;;;;;;;27.85;21.08;;;;;;;;;;2074161;28;20060;-62
2023/09/12 02:27:35;;;;;;;27.10;21.88;;;;;;;;;;2074523;28;20069;-63
2023/09/12 02:28:36;;;;;;;28.65;21.70;;;;;;;;;;2073531;28;20052;-63
2023/09/12 02:29:38;;;;;;;25.42;19.95;;;;;;;;;;2073599;28;20046;-63
2023/09/12 02:30:40;;;;;;;27.77;20.10;;;;;;;;;;2073675;28;20046;-63
2023/09/12 02:31:40;;;;;;;26.20;20.27;;;;;;;;;;2066031;28;20533;-63
2023/09/12 02:32:42;;;;;;;25.65;19.90;;;;;;;;;;2073547;28;20482;-63
2023/09/12 02:33:43;;;;;;;25.25;19.92;;;;;;;;;;2073802;28;20367;-63
2023/09/12 02:34:44;;;;;;;27.17;19.92;;;;;;;;;;2073845;28;20064;-62
2023/09/12 02:35:44;;;;;;;25.05;20.15;;;;;;;;;;2073654;28;20042;-62
2023/09/12 02:36:45;;;;;;;27.48;19.67;;;;;;;;;;2073937;28;20044;-63
2023/09/12 02:37:46;;;;;;;26.42;20.63;;;;;;;;;;2073350;28;20042;-62
2023/09/12 02:38:47;;;;;;;25.30;21.17;;;;;;;;;;2065630;28;20035;-63
2023/09/12 02:39:48;;;;;;;26.08;19.83;;;;;;;;;;2073874;28;20041;-63
2023/09/12 02:40:49;;;;;;;24.73;20.30;;;;;;;;;;2073448;28;20046;-62
2023/09/12 02:41:49;;;;;;;27.45;20.77;;;;;;;;;;2074026;28;20049;-63
2023/09/12 02:42:50;;;;;;;26.40;21.08;;;;;;;;;;2073457;28;20533;-63
2023/09/12 02:43:51;;;;;;;27.50;21.52;;;;;;;;;;2065746;28;20429;-63
2023/09/12 02:44:52;;;;;;;29.60;21.23;;;;;;;;;;2073623;28;20107;-62
2023/09/12 02:45:53;;;;;;;24.10;20.63;;;;;;;;;;2073245;28;20046;-63
2023/09/12 02:46:53;;;;;;;28.65;20.38;;;;;;;;;;2065366;28;20038;-63
2023/09/12 02:47:54;;;;;;;25.70;19.90;;;;;;;;;;2065238;28;20150;-62
2023/09/12 02:48:55;;;;;;;28.65;21.42;;;;;;;;;;2073713;28;20030;-63
2023/09/12 02:49:56;;;;;;;28.98;20.90;;;;;;;;;;2073049;28;20121;-62
2023/09/12 02:50:57;;;;;;;25.67;20.33;;;;;;;;;;2073490;28;20061;-62
2023/09/12 02:51:57;;;;;;;22.95;19.95;;;;;;;;;;2064904;28;20375;-62
2023/09/12 02:52:58;;;;;;;24.42;18.90;;;;;;;;;;2064549;28;20049;-62
2023/09/12 02:53:59;;;;;;;25.25;20.50;;;;;;;;;;2064615;28;20046;-63
2023/09/12 02:54:59;;;;;;;30.05;19.85;;;;;;;;;;2065506;28;20553;-63
2023/09/12 02:56:00;;;;;;;24.85;18.95;;;;;;;;;;2073732;28;20505;-63
2023/09/12 02:57:01;;;;;;;23.27;19.27;;;;;;;;;;2073101;28;20038;-62
2023/09/12 02:58:02;;;;;;;24.92;21.08;;;;;;;;;;2073737;28;20037;-62
2023/09/12 02:59:03;;;;;;;25.83;21.25;;;;;;;;;;2073427;28;20046;-62
2023/09/12 03:00:07;;;;;;;28.50;19.45;;;;;;;;;;2073377;28;20068;-63
2023/09/12 03:01:08;;;;;;;26.25;19.67;;;;;;;;;;2073706;28;20044;-62
2023/09/12 03:02:08;;;;;;;23.27;20.17;;;;;;;;;;2073580;28;20038;-62
2023/09/12 03:03:09;;;;;;;23.35;19.02;;;;;;;;;;2073111;28;20049;-64
2023/09/12 03:04:10;;;;;;;23.55;18.67;;;;;;;;;;2073588;28;20041;-62
2023/09/12 03:05:11;;;;;;;22.85;19.10;;;;;;;;;;2073284;28;20505;-62
2023/09/12 03:06:11;;;;;;;23.25;18.38;;;;;;;;;;2065364;28;20049;-62
2023/09/12 03:07:12;;;;;;;26.38;18.80;;;;;;;;;;2073697;28;20046;-62
2023/09/12 03:08:13;;;;;;;26.80;19.35;;;;;;;;;;2073565;28;20122;-62
2023/09/12 03:09:16;;;;;;;24.05;20.50;;;;;;;;;;2073673;28;20105;-62
2023/09/12 03:10:17;;;;;;;22.45;18.90;;;;;;;;;;2074195;28;20034;-62
2023/09/12 03:11:17;;;;;;;23.17;19.70;;;;;;;;;;2065120;28;20046;-63
2023/09/12 03:12:18;;;;;;;26.17;18.98;;;;;;;;;;2065275;28;20046;-63
2023/09/12 03:13:19;;;;;;;27.83;19.60;;;;;;;;;;2073626;28;20030;-62
2023/09/12 03:14:20;;;;;;;23.20;19.27;;;;;;;;;;2074130;28;20049;-62
2023/09/12 03:15:20;;;;;;;23.45;19.27;;;;;;;;;;2073431;28;20042;-63
2023/09/12 03:16:23;;;;;;;22.05;19.42;;;;;;;;;;2065429;28;20057;-62
2023/09/12 03:17:24;;;;;;;26.48;19.45;;;;;;;;;;2072972;28;20497;-62
2023/09/12 03:18:26;;;;;;;23.15;19.30;;;;;;;;;;2073107;28;20045;-62
2023/09/12 03:19:27;;;;;;;21.95;18.90;;;;;;;;;;2065288;28;20045;-63
2023/09/12 03:20:27;;;;;;;24.75;20.67;;;;;;;;;;2065222;28;20072;-62
2023/09/12 03:21:28;;;;;;;24.75;20.20;;;;;;;;;;2073567;28;20049;-63
2023/09/12 03:22:29;;;;;;;26.55;20.30;;;;;;;;;;2074079;28;20042;-63
2023/09/12 03:23:29;;;;;;;23.88;19.55;;;;;;;;;;2073339;28;20045;-62
2023/09/12 03:24:31;;;;;;;25.52;20.15;;;;;;;;;;2072752;28;20046;-62
2023/09/12 03:25:35;;;;;;;24.88;19.42;;;;;;;;;;2073467;28;20048;-62
2023/09/12 03:26:35;;;;;;;28.35;20.05;;;;;;;;;;2065363;28;20054;-62
2023/09/12 03:27:36;;;;;;;24.60;19.67;;;;;;;;;;2064933;28;20141;-62
2023/09/12 03:28:37;;;;;;;24.73;20.27;;;;;;;;;;2073479;28;20100;-62
2023/09/12 03:29:38;;;;;;;24.38;19.95;;;;;;;;;;2065282;28;20038;-62
2023/09/12 03:30:39;;;;;;;24.70;18.73;;;;;;;;;;2073129;28;20073;-62
2023/09/12 03:31:41;;;;;;;24.58;20.35;;;;;;;;;;2074281;28;20034;-62
2023/09/12 03:32:41;;;;;;;25.25;18.92;;;;;;;;;;2073181;28;20041;-62
2023/09/12 03:33:50;;;;;;;23.75;19.60;;;;;;;;;;2073408;28;20033;-62
2023/09/12 03:34:50;;;;;;;24.30;18.85;;;;;;;;;;2073311;28;20054;-61
2023/09/12 03:35:51;;;;;;;24.90;19.25;;;;;;;;;;2064999;28;20046;-62
2023/09/12 03:36:52;;;;;;;27.80;19.63;;;;;;;;;;2065334;28;20042;-62
2023/09/12 03:37:53;;;;;;;24.65;19.20;;;;;;;;;;2065054;28;20046;-62
2023/09/12 03:38:53;;;;;;;25.65;19.75;;;;;;;;;;2064861;28;20042;-61
2023/09/12 03:39:54;;;;;;;24.40;19.40;;;;;;;;;;2073347;28;20633;-62
2023/09/12 03:40:55;;;;;;;25.23;19.70;;;;;;;;;;2073367;28;20371;-62
2023/09/12 03:41:56;;;;;;;24.48;19.27;;;;;;;;;;2073005;28;20105;-63
2023/09/12 03:42:56;;;;;;;21.55;18.55;;;;;;;;;;2073583;28;20042;-62
2023/09/12 03:43:57;;;;;;;28.88;20.27;;;;;;;;;;2065073;28;20089;-62
2023/09/12 03:44:58;;;;;;;23.05;19.30;;;;;;;;;;2064795;28;20189;-62
2023/09/12 03:45:59;;;;;;;22.05;19.05;;;;;;;;;;2064987;28;20038;-62
2023/09/12 03:46:59;;;;;;;21.50;18.10;;;;;;;;;;2065274;28;20100;-63
2023/09/12 03:48:00;;;;;;;23.45;19.83;;;;;;;;;;2065089;28;20077;-63
2023/09/12 03:49:01;;;;;;;24.45;19.40;;;;;;;;;;2064934;28;20426;-62
2023/09/12 03:50:02;;;;;;;22.77;19.48;;;;;;;;;;2064968;28;20046;-62
2023/09/12 03:51:03;;;;;;;24.77;18.55;;;;;;;;;;2072396;28;20448;-63
2023/09/12 03:52:04;;;;;;;22.58;17.30;;;;;;;;;;2072718;28;20433;-63
2023/09/12 03:53:05;;;;;;;24.17;18.95;;;;;;;;;;2065469;28;20089;-63
2023/09/12 03:54:06;;;;;;;24.95;19.52;;;;;;;;;;2064756;28;20046;-63
2023/09/12 03:55:07;;;;;;;25.50;19.52;;;;;;;;;;2073454;28;20041;-62
2023/09/12 03:56:12;;;;;;;22.88;18.20;;;;;;;;;;2073379;28;20041;-62
2023/09/12 03:57:12;;;;;;;21.77;19.40;;;;;;;;;;2065554;28;20053;-63
2023/09/12 03:58:13;;;;;;;22.27;18.73;;;;;;;;;;2064813;28;20089;-63
2023/09/12 03:59:14;;;;;;;22.70;18.10;;;;;;;;;;2056831;28;20134;-63
2023/09/12 04:00:15;;;;;;;22.02;18.35;;;;;;;;;;2056697;28;20047;-62
2023/09/12 04:01:20;;;;;;;24.15;18.58;;;;;;;;;;2065157;28;20042;-63
2023/09/12 04:02:20;;;;;;;24.90;18.08;;;;;;;;;;2064419;28;20053;-63
2023/09/12 04:03:21;;;;;;;22.40;18.50;;;;;;;;;;2072860;28;20041;-63
2023/09/12 04:04:22;;;;;;;21.60;18.30;;;;;;;;;;2072244;28;20046;-62
2023/09/12 04:05:23;;;;;;;22.27;19.08;;;;;;;;;;2072712;28;20545;-63
2023/09/12 04:06:24;;;;;;;23.38;17.90;;;;;;;;;;2072866;28;20597;-63
2023/09/12 04:07:24;;;;;;;24.30;18.25;;;;;;;;;;2073250;28;20429;-64
2023/09/12 04:08:25;;;;;;;23.33;18.95;;;;;;;;;;2073225;28;20133;-63
2023/09/12 04:09:27;;;;;;;23.13;18.52;;;;;;;;;;2064686;28;20050;-62
2023/09/12 04:10:28;;;;;;;21.95;18.67;;;;;;;;;;2065339;28;20046;-62
2023/09/12 04:11:29;;;;;;;22.25;18.23;;;;;;;;;;2064983;28;20042;-63
2023/09/12 04:12:29;;;;;;;24.98;19.48;;;;;;;;;;2073116;28;20034;-63
2023/09/12 04:13:30;;;;;;;24.95;18.80;;;;;;;;;;2073905;28;20390;-62
2023/09/12 04:14:31;;;;;;;23.52;18.15;;;;;;;;;;2073826;28;20050;-62
2023/09/12 04:15:32;;;;;;;20.67;17.98;;;;;;;;;;2073140;28;20045;-63
2023/09/12 04:16:33;;;;;;;21.13;18.73;;;;;;;;;;2073720;28;20029;-63
2023/09/12 04:17:34;;;;;;;22.42;18.42;;;;;;;;;;2072669;28;20478;-63
2023/09/12 04:18:34;;;;;;;23.52;18.98;;;;;;;;;;2064935;28;20038;-62
2023/09/12 04:19:36;;;;;;;23.00;18.38;;;;;;;;;;2072893;28;20065;-63
2023/09/12 04:20:36;;;;;;;22.88;18.98;;;;;;;;;;2072827;28;20055;-63
2023/09/12 04:21:37;;;;;;;23.27;19.70;;;;;;;;;;2073192;28;20125;-63
2023/09/12 04:22:38;;;;;;;21.98;18.77;;;;;;;;;;2073115;28;20080;-62
2023/09/12 04:23:39;;;;;;;22.92;18.30;;;;;;;;;;2064768;28;20085;-63
2023/09/12 04:24:39;;;;;;;24.08;18.30;;;;;;;;;;2072742;28;20398;-63
2023/09/12 04:25:45;;;;;;;22.00;18.08;;;;;;;;;;2073106;28;20061;-63
2023/09/12 04:26:46;;;;;;;26.00;19.77;;;;;;;;;;2073198;28;20430;-63
2023/09/12 04:27:46;;;;;;;23.15;19.15;;;;;;;;;;2073668;28;20084;-63
2023/09/12 04:28:47;;;;;;;26.25;18.20;;;;;;;;;;2072813;28;20042;-63
2023/09/12 04:29:48;;;;;;;20.65;17.70;;;;;;;;;;2073027;28;20037;-62
2023/09/12 04:30:49;;;;;;;23.25;17.85;;;;;;;;;;2072887;28;20195;-62
2023/09/12 04:31:50;;;;;;;21.63;16.95;;;;;;;;;;2064921;28;20038;-63
2023/09/12 04:32:51;;;;;;;23.00;17.83;;;;;;;;;;2072791;28;20049;-62
2023/09/12 04:33:52;;;;;;;20.50;16.08;;;;;;;;;;2073099;28;20485;-63
2023/09/12 04:34:53;;;;;;;22.50;18.73;;;;;;;;;;2064743;28;20042;-63
2023/09/12 04:35:54;;;;;;;22.45;17.02;;;;;;;;;;2064721;28;20418;-63
2023/09/12 04:36:54;;;;;;;21.85;15.45;;;;;;;;;;2064330;28;20065;-63
2023/09/12 04:37:56;;;;;;;22.50;17.83;;;;;;;;;;2073079;28;20045;-63
2023/09/12 04:38:56;;;;;;;19.33;15.23;;;;;;;;;;2065006;28;20449;-62
2023/09/12 04:39:58;;;;;;;19.20;15.25;;;;;;;;;;2064900;28;20112;-62
2023/09/12 04:41:04;;;;;;;20.63;15.63;;;;;;;;;;2064678;28;20053;-62
2023/09/12 04:42:05;;;;;;;22.92;16.02;;;;;;;;;;2065371;28;20129;-62
2023/09/12 04:43:06;;;;;;;23.70;17.80;;;;;;;;;;2073168;28;20072;-62
2023/09/12 04:44:06;;;;;;;18.63;16.25;;;;;;;;;;2072612;28;20073;-63
2023/09/12 04:45:07;;;;;;;20.15;15.48;;;;;;;;;;2072461;28;20045;-63
2023/09/12 04:46:09;;;;;;;18.50;15.95;;;;;;;;;;2064401;28;20054;-63
2023/09/12 04:47:09;;;;;;;20.83;16.23;;;;;;;;;;2064384;28;20061;-63
2023/09/12 04:48:11;;;;;;;20.10;16.08;;;;;;;;;;2064903;28;20053;-62
2023/09/12 04:49:12;;;;;;;18.25;16.23;;;;;;;;;;2064662;28;20398;-63
2023/09/12 04:50:12;;;;;;;17.08;15.13;;;;;;;;;;2064934;28;20541;-63
2023/09/12 04:51:13;;;;;;;21.20;16.27;;;;;;;;;;2064863;28;20073;-62
2023/09/12 04:52:14;;;;;;;22.05;16.13;;;;;;;;;;2064978;28;20038;-63
2023/09/12 04:53:14;;;;;;;18.10;16.15;;;;;;;;;;2072726;28;20053;-63
2023/09/12 04:54:15;;;;;;;22.17;16.33;;;;;;;;;;2072806;28;20058;-63
2023/09/12 04:55:16;;;;;;;20.20;15.65;;;;;;;;;;2073086;28;20517;-62
2023/09/12 04:56:17;;;;;;;21.52;16.08;;;;;;;;;;2073877;28;20478;-62
2023/09/12 04:57:18;;;;;;;20.27;15.13;;;;;;;;;;2073631;28;20050;-62
2023/09/12 04:58:18;;;;;;;20.88;14.95;;;;;;;;;;2072712;28;20421;-62
2023/09/12 04:59:19;;;;;;;18.92;15.23;;;;;;;;;;2072980;28;20042;-62
2023/09/12 05:00:20;;;;;;;18.67;14.98;;;;;;;;;;2072470;28;20045;-62
2023/09/12 05:01:20;;;;;;;19.33;15.48;;;;;;;;;;2072638;28;20050;-62
2023/09/12 05:02:21;;;;;;;16.25;14.20;;;;;;;;;;2072305;28;20053;-62
2023/09/12 05:03:22;;;;;;;20.05;14.20;;;;;;;;;;2073090;28;20053;-62
2023/09/12 05:04:23;;;;;;;19.65;14.75;;;;;;;;;;2072879;28;20041;-62
2023/09/12 05:05:23;;;;;;;20.20;15.40;;;;;;;;;;2064462;28;20466;-62
2023/09/12 05:06:24;;;;;;;20.70;15.45;;;;;;;;;;2072593;28;20081;-63
2023/09/12 05:07:25;;;;;;;19.08;14.13;;;;;;;;;;2072666;28;20046;-63
2023/09/12 05:08:26;;;;;;;18.35;14.82;;;;;;;;;;2072886;28;20536;-63
2023/09/12 05:09:26;;;;;;;16.80;13.77;;;;;;;;;;2072910;28;20037;-63
2023/09/12 05:10:27;;;;;;;19.30;15.27;;;;;;;;;;2073021;28;20133;-63
2023/09/12 05:11:28;;;;;;;17.02;14.15;;;;;;;;;;2072326;28;20054;-63
2023/09/12 05:12:28;;;;;;;21.85;14.52;;;;;;;;;;2072999;28;20410;-63
2023/09/12 05:13:29;;;;;;;20.27;15.60;;;;;;;;;;2072336;28;20513;-63
2023/09/12 05:14:30;;;;;;;18.48;14.45;;;;;;;;;;2071982;28;20046;-63
2023/09/12 05:15:31;;;;;;;18.95;14.90;;;;;;;;;;2072926;28;20497;-63
2023/09/12 05:16:32;;;;;;;16.23;13.38;;;;;;;;;;2072402;28;20136;-63
2023/09/12 05:17:32;;;;;;;19.05;13.77;;;;;;;;;;2065496;28;20046;-63
2023/09/12 05:18:33;;;;;;;18.83;14.30;;;;;;;;;;2074426;28;20069;-62
2023/09/12 05:19:34;;;;;;;20.13;13.98;;;;;;;;;;2074072;28;20053;-63
2023/09/12 05:20:35;;;;;;;19.08;12.95;;;;;;;;;;2066032;28;20049;-62
2023/09/12 05:21:37;;;;;;;16.52;13.02;;;;;;;;;;2074414;28;20529;-63
2023/09/12 05:22:38;;;;;;;16.77;12.70;;;;;;;;;;2074989;28;20065;-63
2023/09/12 05:23:39;;;;;;;17.45;13.52;;;;;;;;;;2074270;28;20038;-62
2023/09/12 05:24:40;;;;;;;19.33;13.63;;;;;;;;;;2066128;28;20041;-63
2023/09/12 05:25:40;;;;;;;17.23;13.55;;;;;;;;;;2073742;28;20046;-63
2023/09/12 05:26:41;;;;;;;15.10;13.25;;;;;;;;;;2074090;28;20080;-63
2023/09/12 05:27:42;;;;;;;15.10;13.25;;;;;;;;;;2074417;28;20030;-64
2023/09/12 05:28:42;;;;;;;15.13;12.60;;;;;;;;;;2074015;28;20046;-63
2023/09/12 05:29:43;;;;;;;16.08;12.75;;;;;;;;;;2073993;28;20119;-63
2023/09/12 05:30:44;;;;;;;15.98;13.48;;;;;;;;;;2074232;28;20041;-63
2023/09/12 05:31:45;;;;;;;16.90;12.02;;;;;;;;;;2065768;28;20046;-63
2023/09/12 05:32:45;;;;;;;14.15;12.18;;;;;;;;;;2066259;28;20621;-62
2023/09/12 05:33:46;;;;;;;16.50;13.07;;;;;;;;;;2066193;28;20042;-63
2023/09/12 05:34:49;;;;;;;15.65;12.57;;;;;;;;;;2074368;28;20520;-63
2023/09/12 05:35:50;;;;;;;16.50;12.07;;;;;;;;;;2073964;28;20053;-63
2023/09/12 05:36:51;;;;;;;19.20;12.85;;;;;;;;;;2057762;28;20129;-63
2023/09/12 05:37:52;;;;;;;15.70;12.73;;;;;;;;;;2066201;28;20053;-63
2023/09/12 05:38:53;;;;;;;15.82;12.32;;;;;;;;;;2073863;28;20042;-63
2023/09/12 05:39:53;;;;;;;16.05;12.75;;;;;;;;;;2074182;28;20038;-63
2023/09/12 05:40:54;;;;;;;15.63;11.85;;;;;;;;;;2074094;28;20058;-63
2023/09/12 05:41:55;;;;;;;17.02;12.25;;;;;;;;;;2066097;28;20407;-63
2023/09/12 05:42:56;;;;;;;15.95;13.30;;;;;;;;;;2065842;28;20050;-64
2023/09/12 05:43:56;;;;;;;17.13;12.30;;;;;;;;;;2074252;28;20378;-63
2023/09/12 05:45:00;;;;;;;17.65;12.13;;;;;;;;;;2073338;28;20491;-63
2023/09/12 05:46:02;;;;;;;17.52;12.15;;;;;;;;;;2066390;28;20038;-63
2023/09/12 05:47:02;;;;;;;16.42;11.88;;;;;;;;;;2065876;28;20042;-63
2023/09/12 05:48:04;;;;;;;15.45;11.95;;;;;;;;;;2073881;28;20077;-63
2023/09/12 05:49:05;;;;;;;21.13;12.13;;;;;;;;;;2074128;28;20395;-63
2023/09/12 05:50:06;;;;;;;23.70;12.68;;;;;;;;;;2066079;28;20045;-63
2023/09/12 05:51:07;;;;;;;18.77;13.57;;;;;;;;;;2065863;28;20042;-63
2023/09/12 05:52:08;;;;;;;16.90;12.07;;;;;;;;;;2073945;28;20053;-64
2023/09/12 05:53:09;;;;;;;15.27;12.02;;;;;;;;;;2074113;28;20041;-64
2023/09/12 05:54:10;;;;;;;17.83;11.57;;;;;;;;;;2065845;28;20146;-64
2023/09/12 05:55:11;;;;;;;21.00;12.65;;;;;;;;;;2065788;28;20058;-64
2023/09/12 05:56:12;;;;;;;16.00;11.57;;;;;;;;;;2073802;28;20133;-64